Millwood, KY (42762)

10:13 PM CDT on May 24, 2015 (GMT -0500)
Eveleigh Road | | Change Station
CLOSE
Current Station
Personal Weather Station
Location: Leitchfield, KY
Elevation: 670 ft
Nearby Weather Stations

Elev 670 ft 37.58 °N, 86.34 °W | Updated 1 second ago

Clear
Clear
74.8 °F
Feels Like 76 °F
N
1.6
Wind Variable Wind from SW
Gusts 6.9 mph

Today
High -- | Low -- °F
--% Chance of Precip.
Yesterday
High -- | Low -- °F
Precip. -- in
5:30 AM 7:55 PM
Waxing Crescent, 44% visible
Pressure 30.09 in
Visibility 10.0 miles
Clouds Clear
Heat Index 76 °F
Dew Point 65 °F
Humidity 71%
Rainfall 0.00 in
Snow Depth Not available.
UV 0 out of 12
Pollen 8.00 out of 12
Air Quality Not available.
Flu Activity Sporadic
METAR KBWG 250153Z AUTO 15007KT 10SM CLR 25/16 A3010 RMK AO2 SLP187 T02500161

More Conditions Fewer Conditions

Pressure 30.09 in
Visibility 10.0 miles
Clouds Clear
Heat Index 76 °F
Dew Point 65 °F
Humidity 71%
Rainfall 0.00 in
Snow Depth Not available.
UV 0 out of 12
Pollen 8.00 out of 12
Air Quality Not available.
Flu Activity Sporadic
METAR KBWG 250153Z AUTO 15007KT 10SM CLR 25/16 A3010 RMK AO2 SLP187 T02500161

More Conditions Fewer Conditions

10-Day Weather Forecast

Almanac

Astronomy

May. 24, 2015 Rise Set
Actual Time
Civil Twilight
Nautical Twilight
Astronomical Twilight
Moon
Length of Visible Light
Length of Day
Tomorrow will be .
, % of the Moon is Illuminated

Today's Extremes

State Highs State Lows

Community

WunderPhotos

Upload Photos

1,823,944 photos uploaded!

WunderBlogs® & News

Nearby

Air Quality

  Air Quality AQ Index Pollutant
Not available.

Snow Depth

Station Depth Elevation

Earthquake Activity

City Distance Mag. Time & Date
Minimum magnitude displayed is 2.5.

Coastal Water Temperatures

Place Temperature

Stations

Nearby Weather Stations

Station Location Temp. Windchill Dew Point Humidity Wind Precip. Elev Updated Type